Time;durP1;ratioP1;P1;durP2;ratioP2;P2;SDS_P1;SDS_P2;PMS_P1;PMS_P2;Temp;Humidity;BMP_temperature;BMP_pressure;BME280_temperature;BME280_humidity;BME280_pressure;Samples;Min_cycle;Max_cycle;Signal;HPM_P1;HPM_P2
2022/05/21 00:01:06;;;;;;;1999.90;999.90;;;;;;;22.01;100.00;95538.59;5096970;28;20187;-58
2022/05/21 00:03:31;;;;;;;1999.90;999.90;;;;;;;21.99;100.00;95530.72;5096823;28;20180;-58
2022/05/21 00:05:57;;;;;;;1999.90;999.90;;;;;;;21.78;100.00;95526.22;5096456;28;20191;-57
2022/05/21 00:08:22;;;;;;;1999.90;999.90;;;;;;;21.75;100.00;95527.16;5096614;28;20184;-57
2022/05/21 00:10:48;;;;;;;1999.90;999.90;;;;;;;21.83;100.00;95539.50;5096637;28;20187;-58
2022/05/21 00:13:13;;;;;;;1999.90;999.90;;;;;;;21.87;100.00;95550.44;5096402;28;20203;-58
2022/05/21 00:15:39;;;;;;;1999.90;999.90;;;;;;;21.68;100.00;95560.09;5097072;28;20222;-58
2022/05/21 00:18:05;;;;;;;1999.90;999.90;;;;;;;21.47;100.00;95559.09;5097224;28;20223;-58
2022/05/21 00:20:49;;;;;;;1999.90;999.90;;;;;;;21.37;100.00;95563.16;5096489;28;20198;-57
2022/05/21 00:23:27;;;;;;;1999.90;999.90;;;;;;;21.31;100.00;95553.91;5096260;28;20216;-57
2022/05/21 00:26:05;;;;;;;1999.90;999.90;;;;;;;21.12;100.00;95563.53;5096351;28;20191;-57
2022/05/21 00:28:32;;;;;;;1999.90;999.90;;;;;;;21.10;100.00;95554.91;5096617;28;20274;-58
2022/05/21 00:30:58;;;;;;;1999.90;999.90;;;;;;;20.98;100.00;95553.06;5096121;28;20183;-58
2022/05/21 00:33:25;;;;;;;1999.90;999.90;;;;;;;21.00;100.00;95549.84;5096344;28;20184;-62
2022/05/21 00:35:51;;;;;;;1999.90;999.90;;;;;;;21.00;100.00;95556.16;5096269;28;20201;-67
2022/05/21 00:38:16;;;;;;;1999.90;999.90;;;;;;;20.93;100.00;95573.16;5114279;28;20238;-61
2022/05/21 00:40:44;;;;;;;1999.90;999.90;;;;;;;20.94;100.00;95587.81;5096811;28;20183;-60
2022/05/21 00:43:48;;;;;;;1999.90;999.90;;;;;;;20.87;100.00;95582.56;5096079;28;20185;-61
2022/05/21 00:46:17;;;;;;;1999.90;999.90;;;;;;;20.94;100.00;95596.91;5054863;28;20241;-60
2022/05/21 00:48:45;;;;;;;1999.90;999.90;;;;;;;20.82;100.00;95594.25;5096239;28;20252;-60
2022/05/21 00:51:19;;;;;;;1999.90;999.90;;;;;;;20.74;100.00;95593.81;5096152;28;20219;-59
2022/05/21 00:53:46;;;;;;;1999.90;999.90;;;;;;;20.66;100.00;95603.72;5096069;28;20183;-64
2022/05/21 00:56:12;;;;;;;1999.90;999.90;;;;;;;20.77;100.00;95597.66;5095888;28;20188;-60
2022/05/21 01:01:26;;;;;;;1999.90;999.90;;;;;;;20.66;100.00;95581.50;5116591;28;20226;-60
2022/05/21 01:03:51;;;;;;;1999.90;999.90;;;;;;;20.75;100.00;95586.25;5099467;28;20210;-60
2022/05/21 01:06:17;;;;;;;1999.90;999.90;;;;;;;20.64;100.00;95583.94;5099948;28;20235;-60
2022/05/21 01:08:42;;;;;;;1999.90;999.90;;;;;;;20.61;100.00;95573.78;5099804;28;20270;-60
2022/05/21 01:11:11;;;;;;;1999.90;999.90;;;;;;;20.61;100.00;95573.03;5099966;28;20187;-62
2022/05/21 01:13:40;;;;;;;1999.90;999.90;;;;;;;20.59;100.00;95586.56;5099768;28;20188;-58
2022/05/21 01:16:06;;;;;;;1999.90;999.90;;;;;;;20.56;100.00;95604.16;5099519;28;20184;-58
2022/05/21 01:18:32;;;;;;;1999.90;999.90;;;;;;;20.46;100.00;95589.50;5099424;28;20195;-58
2022/05/21 01:21:00;;;;;;;1999.90;999.90;;;;;;;20.29;100.00;95585.47;5099834;28;20200;-58
2022/05/21 01:23:26;;;;;;;1999.90;999.90;;;;;;;20.14;100.00;95579.00;5099258;28;20183;-57
2022/05/21 01:25:53;;;;;;;1999.90;999.90;;;;;;;20.11;100.00;95579.94;5098938;28;20195;-58
2022/05/21 01:28:22;;;;;;;1999.90;999.90;;;;;;;20.07;100.00;95590.34;5099101;28;20187;-59
2022/05/21 01:31:00;;;;;;;1999.90;999.90;;;;;;;20.04;100.00;95591.28;5099603;28;20202;-59
2022/05/21 01:33:29;;;;;;;1999.90;999.90;;;;;;;19.91;100.00;95604.50;5099403;28;20179;-61
2022/05/21 01:35:54;;;;;;;1999.90;999.90;;;;;;;19.79;100.00;95608.19;5099581;28;20194;-62
2022/05/21 01:38:22;;;;;;;1999.90;999.90;;;;;;;19.67;100.00;95595.22;5099536;28;20207;-60
2022/05/21 01:40:49;;;;;;;1999.90;999.90;;;;;;;19.34;100.00;95594.91;5098992;28;20198;-62
2022/05/21 01:45:58;;;;;;;1999.90;999.90;;;;;;;18.83;100.00;95576.31;5117371;28;20296;-61
2022/05/21 01:48:28;;;;;;;1999.90;999.90;;;;;;;18.73;100.00;95560.84;5099108;28;20278;-59
2022/05/21 01:50:54;;;;;;;1999.90;999.90;;;;;;;18.52;100.00;95550.56;5099163;28;20187;-69
2022/05/21 01:53:22;;;;;;;1999.90;999.90;;;;;;;18.43;100.00;95531.91;5098649;28;20187;-68
2022/05/21 01:55:47;;;;;;;1999.90;999.90;;;;;;;18.25;100.00;95525.44;5098722;28;20217;-67
2022/05/21 01:58:13;;;;;;;1999.90;999.90;;;;;;;18.04;100.00;95481.97;5098577;28;20168;-64
2022/05/21 02:00:40;;;;;;;1999.90;999.90;;;;;;;18.04;100.00;95476.44;5098669;28;20188;-64
2022/05/21 02:03:10;;;;;;;1999.90;999.90;;;;;;;18.01;100.00;95480.09;5099282;28;20211;-63
2022/05/21 02:05:36;;;;;;;1999.90;999.90;;;;;;;17.85;100.00;95488.56;5099191;28;20237;-58
2022/05/21 02:08:02;;;;;;;1999.90;999.90;;;;;;;17.80;100.00;95478.06;5098664;28;20208;-64
2022/05/21 02:10:27;;;;;;;1999.90;999.90;;;;;;;17.89;100.00;95489.22;5098576;28;20228;-64
2022/05/21 02:12:52;;;;;;;1999.90;999.90;;;;;;;17.81;100.00;95496.97;5097424;28;20184;-65
2022/05/21 02:15:18;;;;;;;1999.90;999.90;;;;;;;17.87;100.00;95488.88;5098228;28;20195;-64
2022/05/21 02:17:43;;;;;;;1999.90;999.90;;;;;;;17.90;100.00;95482.47;5098171;28;20238;-65
2022/05/21 02:20:09;;;;;;;1999.90;999.90;;;;;;;17.89;100.00;95476.16;5098228;28;20180;-65
2022/05/21 02:22:36;;;;;;;1999.90;999.90;;;;;;;17.79;100.00;95477.31;5098329;28;20188;-65
2022/05/21 02:25:03;;;;;;;1999.90;999.90;;;;;;;17.81;100.00;95485.16;5098132;28;20235;-64
2022/05/21 02:27:29;;;;;;;1999.90;999.90;;;;;;;17.88;100.00;95479.41;5097936;28;20199;-58
2022/05/21 02:29:54;;;;;;;1999.90;999.90;;;;;;;17.88;100.00;95487.69;5098736;28;20187;-57
2022/05/21 02:32:19;;;;;;;1999.90;999.90;;;;;;;17.92;100.00;95496.63;5098865;28;20191;-57
2022/05/21 02:34:45;;;;;;;1999.90;999.90;;;;;;;17.98;100.00;95572.19;5097916;28;20199;-58
2022/05/21 02:39:54;;;;;;;1999.90;999.90;;;;;;;17.91;100.00;95569.66;5116685;28;20332;-57
2022/05/21 02:45:04;;;;;;;1999.90;999.90;;;;;;;17.97;100.00;95559.59;5116643;28;20202;-58
2022/05/21 02:47:30;;;;;;;1999.90;999.90;;;;;;;18.03;100.00;95557.81;5097983;28;20204;-58
2022/05/21 02:49:56;;;;;;;1999.90;999.90;;;;;;;18.00;100.00;95556.72;5097773;28;20222;-58
2022/05/21 02:52:21;;;;;;;1999.90;999.90;;;;;;;17.95;100.00;95545.47;5098491;28;20219;-57
2022/05/21 02:54:47;;;;;;;1999.90;999.90;;;;;;;17.90;100.00;95544.03;5097753;28;20191;-58
2022/05/21 02:57:12;;;;;;;1999.90;999.90;;;;;;;17.86;100.00;95537.09;5097774;28;20191;-57
2022/05/21 02:59:39;;;;;;;1999.90;999.90;;;;;;;17.87;100.00;95539.41;5097640;28;20245;-56
2022/05/21 03:02:05;;;;;;;1999.90;999.90;;;;;;;17.88;100.00;95534.66;5098163;28;20183;-64
2022/05/21 03:04:31;;;;;;;1999.90;999.90;;;;;;;17.94;100.00;95524.56;5097843;28;20274;-65
2022/05/21 03:06:56;;;;;;;1999.90;999.90;;;;;;;17.93;100.00;95525.78;5097958;28;20306;-64
2022/05/21 03:12:07;;;;;;;1999.90;999.90;;;;;;;17.88;100.00;95532.66;5116193;28;20244;-65
2022/05/21 03:14:32;;;;;;;1999.90;999.90;;;;;;;17.89;100.00;95541.72;5097529;28;20221;-64
2022/05/21 03:16:59;;;;;;;1999.90;999.90;;;;;;;17.84;100.00;95539.50;5097510;28;20211;-65
2022/05/21 03:19:26;;;;;;;1999.90;999.90;;;;;;;17.80;100.00;95544.38;5115609;28;20192;-60
2022/05/21 03:21:52;;;;;;;1999.90;999.90;;;;;;;17.72;100.00;95540.31;5097279;28;20210;-61
2022/05/21 03:24:17;;;;;;;1999.90;999.90;;;;;;;17.64;100.00;95537.03;5097525;28;20436;-60
2022/05/21 03:26:42;;;;;;;1999.90;999.90;;;;;;;17.61;100.00;95542.66;5097255;28;20212;-60
2022/05/21 03:29:08;;;;;;;1999.90;999.90;;;;;;;17.59;100.00;95547.88;5097088;28;20192;-62
2022/05/21 03:31:33;;;;;;;1999.90;999.90;;;;;;;17.53;100.00;95557.94;5097674;28;20194;-60
2022/05/21 03:33:58;;;;;;;1999.90;999.90;;;;;;;17.56;100.00;95548.75;5097425;28;20245;-60
2022/05/21 03:36:24;;;;;;;1999.90;999.90;;;;;;;17.53;100.00;95563.44;5097196;28;20232;-61
2022/05/21 03:38:50;;;;;;;1999.90;999.90;;;;;;;17.55;100.00;95555.50;5097003;28;20241;-57
2022/05/21 03:41:16;;;;;;;1999.90;999.90;;;;;;;17.51;100.00;95557.59;5096843;28;20239;-65
2022/05/21 03:43:41;;;;;;;1999.90;999.90;;;;;;;17.49;100.00;95565.56;5097073;28;20190;-65
2022/05/21 03:46:07;;;;;;;1999.90;999.90;;;;;;;17.52;100.00;95568.19;5096827;28;20218;-65
2022/05/21 03:48:32;;;;;;;1999.90;999.90;;;;;;;17.57;100.00;95572.38;5097562;28;20176;-66
2022/05/21 03:50:57;;;;;;;1999.90;999.90;;;;;;;17.57;100.00;95578.69;5097433;28;20199;-65
2022/05/21 03:53:23;;;;;;;1999.90;999.90;;;;;;;17.56;100.00;95584.66;5097389;28;20215;-65
2022/05/21 03:55:48;;;;;;;1999.90;999.90;;;;;;;17.52;100.00;95595.06;5097340;28;20191;-64
2022/05/21 03:58:15;;;;;;;1999.90;999.90;;;;;;;17.59;100.00;95592.06;5097640;28;20187;-57
2022/05/21 04:00:40;;;;;;;1999.90;999.90;;;;;;;17.54;100.00;95598.13;5096725;28;20264;-56
2022/05/21 04:03:06;;;;;;;1999.90;999.90;;;;;;;17.56;100.00;95593.72;5097293;28;20278;-57
2022/05/21 04:05:32;;;;;;;1999.90;999.90;;;;;;;17.58;100.00;95604.31;5097248;28;20256;-57
2022/05/21 04:07:57;;;;;;;1999.90;999.90;;;;;;;17.71;100.00;95602.31;5096859;28;20211;-58
2022/05/21 04:10:23;;;;;;;1999.90;999.90;;;;;;;17.66;100.00;95609.16;5096647;28;20187;-57
2022/05/21 04:12:48;;;;;;;1999.90;999.90;;;;;;;17.75;100.00;95614.81;5096858;28;20188;-57
2022/05/21 04:15:14;;;;;;;1999.90;999.90;;;;;;;17.80;100.00;95608.72;5096466;28;20222;-57
2022/05/21 04:17:40;;;;;;;1999.90;999.90;;;;;;;17.81;100.00;95617.78;5096443;28;20227;-65
2022/05/21 04:20:09;;;;;;;1999.90;999.90;;;;;;;18.17;100.00;95634.75;5096856;28;20235;-67
2022/05/21 04:22:34;;;;;;;1999.90;999.90;;;;;;;18.45;100.00;95628.25;5096568;28;20187;-65
2022/05/21 04:24:59;;;;;;;1999.90;999.90;;;;;;;18.42;100.00;95640.22;5096364;28;20186;-66
2022/05/21 04:27:25;;;;;;;1999.90;999.90;;;;;;;18.73;100.00;95643.88;5096156;28;20203;-66
2022/05/21 04:29:50;;;;;;;1999.90;999.90;;;;;;;18.61;100.00;95651.00;5096799;28;20270;-66
2022/05/21 04:32:16;;;;;;;1999.90;999.90;;;;;;;18.82;100.00;95646.69;5096815;28;20183;-62
2022/05/21 04:34:41;;;;;;;1999.90;999.90;;;;;;;19.14;100.00;95643.53;5095413;28;20184;-57
2022/05/21 04:37:06;;;;;;;1999.90;999.90;;;;;;;19.36;100.00;95655.41;5096827;28;20267;-58
2022/05/21 04:39:32;;;;;;;1999.90;999.90;;;;;;;19.35;100.00;95651.84;5096249;28;20278;-58
2022/05/21 04:42:00;;;;;;;1999.90;999.90;;;;;;;19.44;100.00;95659.44;5096317;28;20183;-58
2022/05/21 04:44:30;;;;;;;1999.90;999.90;;;;;;;19.79;100.00;95669.16;5096413;28;20187;-58
2022/05/21 04:46:56;;;;;;;1999.90;999.90;;;;;;;20.37;100.00;95681.09;5096346;28;20207;-58
2022/05/21 04:49:21;;;;;;;1999.90;999.90;;;;;;;21.06;100.00;95682.09;5096693;28;20263;-58
2022/05/21 04:51:47;;;;;;;1999.90;999.90;;;;;;;21.55;100.00;95699.28;5096339;28;20209;-58
2022/05/21 04:54:12;;;;;;;1999.90;999.90;;;;;;;22.06;100.00;95708.44;5096192;28;20187;-66
2022/05/21 04:56:37;;;;;;;1999.90;999.90;;;;;;;22.50;100.00;95721.88;5096191;28;20188;-67
2022/05/21 04:59:03;;;;;;;1999.90;999.90;;;;;;;22.30;100.00;95714.78;5096145;28;20188;-67
2022/05/21 05:01:30;;;;;;;1999.90;999.90;;;;;;;22.29;100.00;95729.97;5096434;28;20194;-67
2022/05/21 05:03:55;;;;;;;1999.90;999.90;;;;;;;22.22;100.00;95721.94;5113810;28;20237;-67
2022/05/21 05:06:21;;;;;;;1999.90;999.90;;;;;;;22.52;100.00;95743.16;5096189;28;20243;-68
2022/05/21 05:08:46;;;;;;;1999.90;999.90;;;;;;;23.00;100.00;95745.97;5096061;28;20194;-57
2022/05/21 05:11:11;;;;;;;1999.90;999.90;;;;;;;23.23;100.00;95748.00;5095731;28;20191;-59
2022/05/21 05:13:37;;;;;;;1999.90;999.90;;;;;;;23.63;100.00;95759.44;5096047;28;20184;-58
2022/05/21 05:16:02;;;;;;;1999.90;999.90;;;;;;;22.42;100.00;95757.59;5095820;28;20211;-57
2022/05/21 05:18:30;;;;;;;1999.90;999.90;;;;;;;22.39;100.00;95764.88;5095964;28;20184;-57
2022/05/21 05:20:56;;;;;;;1999.90;999.90;;;;;;;22.84;100.00;95766.69;5096254;28;20239;-57
2022/05/21 05:23:21;;;;;;;1999.90;999.90;;;;;;;22.62;100.00;95770.97;5095613;28;20183;-58
2022/05/21 05:25:47;;;;;;;1999.90;999.90;;;;;;;22.84;100.00;95771.47;5096178;28;20239;-58
2022/05/21 05:28:15;;;;;;;1999.90;999.90;;;;;;;23.07;100.00;95774.25;5095720;28;20204;-62
2022/05/21 05:30:41;;;;;;;1999.90;999.90;;;;;;;23.45;100.00;95773.53;5095713;28;20180;-60
2022/05/21 05:33:06;;;;;;;1999.90;999.90;;;;;;;23.23;100.00;95775.91;5095999;28;20176;-62
2022/05/21 05:35:32;;;;;;;1999.90;999.90;;;;;;;22.92;100.00;95783.81;5095907;28;20184;-60
2022/05/21 05:37:57;;;;;;;1999.90;999.90;;;;;;;23.39;100.00;95784.59;5096004;28;20188;-61
2022/05/21 05:40:22;;;;;;;1999.90;999.90;;;;;;;24.25;100.00;95790.72;5095473;28;20203;-61
2022/05/21 05:42:48;;;;;;;1999.90;999.90;;;;;;;25.04;100.00;95795.03;5095549;28;20368;-61
2022/05/21 05:45:15;;;;;;;1999.90;999.90;;;;;;;25.58;94.19;95785.03;5095675;28;20191;-61
2022/05/21 05:47:40;;;;;;;1999.90;999.90;;;;;;;26.24;92.37;95764.13;5098047;28;20292;-70
2022/05/21 05:50:07;;;;;;;1999.90;999.90;;;;;;;26.84;87.44;95772.22;5098844;28;20213;-71
2022/05/21 05:52:32;;;;;;;1999.90;999.90;;;;;;;27.20;81.80;95805.06;5098733;28;20290;-70
2022/05/21 05:54:57;;;;;;;1999.90;999.90;;;;;;;27.71;75.38;95810.44;5116613;28;20207;-69
2022/05/21 05:57:23;;;;;;;1999.90;999.90;;;;;;;27.92;71.12;95825.06;5098704;28;20186;-67
2022/05/21 05:59:49;;;;;;;1999.90;999.90;;;;;;;27.91;68.14;95827.13;5098760;28;20196;-68
2022/05/21 06:05:05;;;;;;;1999.90;999.90;;;;;;;27.06;70.38;95834.06;5117194;28;20244;-59
2022/05/21 06:07:32;;;;;;;1999.90;999.90;;;;;;;27.36;68.18;95829.69;5098531;28;20212;-59
2022/05/21 06:10:03;;;;;;;1999.90;999.90;;;;;;;27.20;67.57;95838.75;5098530;28;20191;-59
2022/05/21 06:12:29;;;;;;;1999.90;999.90;;;;;;;26.18;73.01;95847.31;5098457;28;20187;-59
2022/05/21 06:14:55;;;;;;;1999.90;999.90;;;;;;;25.22;80.62;95837.50;5098543;28;20176;-59
2022/05/21 06:17:20;;;;;;;1999.90;999.90;;;;;;;25.03;84.35;95843.81;5098449;28;20207;-59
2022/05/21 06:19:46;;;;;;;1999.90;999.90;;;;;;;25.36;82.07;95835.91;5098977;28;20180;-61
2022/05/21 06:22:11;;;;;;;1999.90;999.90;;;;;;;26.51;75.12;95841.28;5098270;28;20190;-70
2022/05/21 06:24:37;;;;;;;1999.90;999.90;;;;;;;26.74;73.47;95845.81;5098169;28;20176;-62
2022/05/21 06:27:04;;;;;;;1999.90;999.90;;;;;;;25.93;75.95;95845.25;5098209;28;20200;-61
2022/05/21 06:29:30;;;;;;;1999.90;999.90;;;;;;;26.58;75.99;95844.38;5098184;28;20184;-61
2022/05/21 06:31:56;;;;;;;1999.90;999.90;;;;;;;27.33;71.92;95833.50;5098339;28;20187;-62
2022/05/21 06:34:21;;;;;;;1999.90;999.90;;;;;;;28.39;64.47;95846.63;5098226;28;20190;-58
2022/05/21 06:36:47;;;;;;;1999.90;999.90;;;;;;;27.90;64.02;95842.44;5098033;28;20183;-57
2022/05/21 06:39:12;;;;;;;1999.90;999.90;;;;;;;27.18;67.63;95846.91;5116018;28;20183;-60
2022/05/21 06:41:37;;;;;;;1999.90;999.90;;;;;;;26.77;65.81;95853.25;5098003;28;20235;-59
2022/05/21 06:44:03;;;;;;;1999.90;999.90;;;;;;;26.57;64.58;95856.09;5097735;28;20180;-60
2022/05/21 06:46:28;;;;;;;1999.90;999.90;;;;;;;28.06;62.68;95860.63;5098293;28;20203;-60
2022/05/21 06:48:54;;;;;;;1999.90;999.90;;;;;;;27.12;67.55;95856.53;5097783;28;20184;-60
2022/05/21 06:51:19;;;;;;;1999.90;999.90;;;;;;;26.44;69.16;95853.69;5097871;28;20190;-62
2022/05/21 06:53:45;;;;;;;1999.90;999.90;;;;;;;24.82;75.40;95870.97;5097970;28;20176;-60
2022/05/21 06:56:14;;;;;;;1999.90;999.90;;;;;;;25.81;66.86;95871.56;5097541;28;20188;-60
2022/05/21 06:58:40;;;;;;;1999.90;999.90;;;;;;;26.92;60.64;95874.25;5097272;28;20183;-58
2022/05/21 07:01:06;;;;;;;1999.90;999.90;;;;;;;29.05;54.39;95857.16;5097706;28;20180;-60
2022/05/21 07:03:31;;;;;;;1999.90;999.90;;;;;;;29.69;48.43;95870.88;5097891;28;20270;-66
2022/05/21 07:08:41;;;;;;;1999.90;999.90;;;;;;;30.68;43.23;95865.53;5116298;28;20225;-62
2022/05/21 07:11:07;;;;;;;1999.90;999.90;;;;;;;30.93;42.14;95869.19;5097250;28;20176;-63
2022/05/21 07:13:32;;;;;;;1999.90;999.90;;;;;;;29.98;43.59;95870.25;5097440;28;20184;-64
2022/05/21 07:15:59;;;;;;;1999.90;999.90;;;;;;;29.06;48.06;95869.97;5097291;28;20188;-63
2022/05/21 07:18:26;;;;;;;1999.90;999.90;;;;;;;27.90;49.81;95872.56;5097478;28;20199;-59
2022/05/21 07:20:53;;;;;;;1999.90;999.90;;;;;;;28.70;47.26;95870.97;5097496;28;20243;-62
2022/05/21 07:23:18;;;;;;;1999.90;999.90;;;;;;;29.12;43.68;95879.94;5097465;28;20187;-62
2022/05/21 07:25:44;;;;;;;1999.90;999.90;;;;;;;29.07;43.80;95888.41;5097271;28;20180;-62
2022/05/21 07:28:10;;;;;;;1999.90;999.90;;;;;;;30.71;41.47;95887.03;5097279;28;20271;-63
2022/05/21 07:30:37;;;;;;;1999.90;999.90;;;;;;;31.57;38.49;95876.06;5097094;28;20183;-62
2022/05/21 07:33:03;;;;;;;1999.90;999.90;;;;;;;32.71;37.59;95864.59;5097216;28;20289;-63
2022/05/21 07:35:28;;;;;;;1999.90;999.90;;;;;;;30.74;38.82;95871.16;5097176;28;20211;-61
2022/05/21 07:37:54;;;;;;;1999.90;999.90;;;;;;;31.09;38.96;95866.22;5097072;28;20195;-60
2022/05/21 07:40:21;;;;;;;1999.90;999.90;;;;;;;31.51;38.44;95873.28;5096951;28;20179;-61
2022/05/21 07:42:47;;;;;;;1999.90;999.90;;;;;;;32.98;36.35;95866.22;5096878;28;20252;-61
2022/05/21 07:45:14;;;;;;;1999.90;999.90;;;;;;;33.25;34.24;95862.16;5097084;28;20179;-61
2022/05/21 07:47:40;;;;;;;1999.90;999.90;;;;;;;32.47;36.78;95856.19;5097023;28;20253;-61
2022/05/21 07:50:06;;;;;;;1999.90;999.90;;;;;;;32.51;35.87;95859.47;5115082;28;20176;-61
2022/05/21 07:52:32;;;;;;;1999.90;999.90;;;;;;;33.39;34.18;95855.22;5096796;28;20204;-61
2022/05/21 07:54:57;;;;;;;1999.90;999.90;;;;;;;33.26;34.11;95852.34;5096785;28;20176;-60
2022/05/21 07:57:23;;;;;;;1999.90;999.90;;;;;;;32.86;34.39;95853.56;5096706;28;20184;-65
2022/05/21 07:59:48;;;;;;;1999.90;999.90;;;;;;;33.09;34.49;95849.03;5096889;28;20252;-63
2022/05/21 08:02:17;;;;;;;1999.90;999.90;;;;;;;33.31;33.88;95853.53;5096932;28;20184;-61
2022/05/21 08:04:44;;;;;;;1999.90;999.90;;;;;;;32.94;34.88;95848.00;5096932;28;20179;-62
2022/05/21 08:07:09;;;;;;;1999.90;999.90;;;;;;;32.20;35.59;95854.50;5096345;28;20214;-61
2022/05/21 08:09:35;;;;;;;1999.90;999.90;;;;;;;34.29;33.48;95852.16;5096180;28;20172;-62
2022/05/21 08:12:01;;;;;;;1999.90;999.90;;;;;;;34.02;33.82;95847.84;5096517;28;20324;-61
2022/05/21 08:14:27;;;;;;;1999.90;999.90;;;;;;;30.97;38.23;95847.09;5096569;28;20176;-62
2022/05/21 08:16:52;;;;;;;1999.90;999.90;;;;;;;31.51;38.87;95856.34;5096558;28;20211;-60
2022/05/21 08:19:18;;;;;;;1999.90;999.90;;;;;;;31.02;39.04;95849.09;5096591;28;20183;-61
2022/05/21 08:21:43;;;;;;;1999.90;999.90;;;;;;;31.56;38.82;95849.09;5096764;28;20180;-60
2022/05/21 08:27:02;;;;;;;1999.90;999.90;;;;;;;32.18;38.12;95840.13;5114731;28;20214;-60
2022/05/21 08:29:34;;;;;;;1999.90;999.90;;;;;;;31.54;39.02;95841.16;5096668;28;20175;-60
2022/05/21 08:32:00;;;;;;;1999.90;999.90;;;;;;;29.86;43.38;95838.53;5096517;28;20195;-61
2022/05/21 08:34:27;;;;;;;1999.90;999.90;;;;;;;30.21;44.47;95844.28;5097027;28;20178;-60
2022/05/21 08:36:53;;;;;;;1999.90;999.90;;;;;;;31.48;39.86;95843.28;5096384;28;20236;-61
2022/05/21 08:39:20;;;;;;;1999.90;999.90;;;;;;;33.10;35.57;95833.56;5096141;28;20192;-60
2022/05/21 08:41:54;;;;;;;1999.90;999.90;;;;;;;32.62;36.53;95833.84;5096203;28;20262;-60
2022/05/21 08:44:34;;;;;;;1999.90;999.90;;;;;;;32.07;35.31;95840.25;5096252;28;20232;-60
2022/05/21 08:47:15;;;;;;;1999.90;999.90;;;;;;;32.44;34.67;95840.28;5095808;28;20211;-61
2022/05/21 08:50:01;;;;;;;1999.90;999.90;;;;;;;32.57;33.43;95834.69;5096173;28;20176;-70
2022/05/21 08:52:37;;;;;;;1999.90;999.90;;;;;;;33.42;32.41;95825.81;5095877;28;20232;-61
2022/05/21 08:55:06;;;;;;;1999.90;999.90;;;;;;;32.97;32.48;95825.06;5095897;28;20186;-62
2022/05/21 08:57:41;;;;;;;1999.90;999.90;;;;;;;33.34;32.65;95821.31;5095855;28;20180;-63
2022/05/21 09:00:11;;;;;;;1999.90;999.90;;;;;;;33.49;31.31;95819.50;5096446;28;20183;-63
2022/05/21 09:02:37;;;;;;;1999.90;999.90;;;;;;;33.76;27.60;95825.94;5095659;28;20180;-63
2022/05/21 09:05:06;;;;;;;1999.90;999.90;;;;;;;33.82;28.12;95823.72;5096238;28;20240;-64
2022/05/21 09:08:02;;;;;;;1999.90;999.90;;;;;;;33.26;29.35;95824.03;5095764;28;20231;-60
2022/05/21 09:10:43;;;;;;;1999.90;999.90;;;;;;;34.08;28.83;95811.63;5095833;28;20198;-59
2022/05/21 09:13:37;;;;;;;1999.90;999.90;;;;;;;33.73;27.48;95827.75;5096288;28;20191;-60
2022/05/21 09:18:49;;;;;;;1999.90;999.90;;;;;;;33.56;28.84;95807.50;5114084;28;20198;-59
2022/05/21 09:21:23;;;;;;;1999.90;999.90;;;;;;;32.13;30.14;95812.69;5096067;28;20229;-59
2022/05/21 09:23:50;;;;;;;1999.90;999.90;;;;;;;32.11;29.37;95812.44;5099217;28;20270;-59
2022/05/21 09:26:18;;;;;;;1999.90;999.90;;;;;;;32.34;29.74;95816.50;5099101;28;20204;-65
2022/05/21 09:28:44;;;;;;;1999.90;999.90;;;;;;;33.19;28.39;95807.69;5099145;28;20179;-60
2022/05/21 09:31:11;;;;;;;1999.90;999.90;;;;;;;33.21;28.40;95812.81;5099041;28;20192;-60
2022/05/21 09:33:43;;;;;;;1999.90;999.90;;;;;;;32.72;29.16;95820.81;5099611;28;20180;-59
2022/05/21 09:36:14;;;;;;;1999.90;999.90;;;;;;;33.29;28.21;95817.25;5099448;28;20229;-59
2022/05/21 09:38:52;;;;;;;1999.90;999.90;;;;;;;32.06;30.18;95815.34;5098760;28;20213;-59
2022/05/21 09:41:32;;;;;;;1999.90;999.90;;;;;;;32.58;28.98;95807.16;5098768;28;20187;-59
2022/05/21 09:47:16;;;;;;;1999.90;999.90;;;;;;;31.18;30.25;95811.47;5117403;28;20199;-62
2022/05/21 09:49:42;;;;;;;1999.90;999.90;;;;;;;31.84;29.08;95805.13;5098690;28;20175;-64
2022/05/21 09:52:20;;;;;;;1999.90;999.90;;;;;;;32.62;28.69;95808.38;5098903;28;20184;-64
2022/05/21 09:54:46;;;;;;;1999.90;999.90;;;;;;;32.46;28.96;95820.72;5099374;28;20191;-64
2022/05/21 09:57:42;;;;;;;1999.90;999.90;;;;;;;32.96;29.19;95800.88;5098606;28;20188;-64
2022/05/21 10:00:29;;;;;;;1999.90;999.90;;;;;;;33.21;27.57;95802.22;5098570;28;20188;-64
2022/05/21 10:02:56;;;;;;;1999.90;999.90;;;;;;;32.89;28.45;95812.81;5098717;28;20186;-63
2022/05/21 10:05:39;;;;;;;1999.90;999.90;;;;;;;33.11;27.41;95809.59;5098451;28;20244;-60
2022/05/21 10:11:19;;;;;;;1999.90;999.90;;;;;;;32.55;29.04;95800.50;5116669;28;20174;-72
2022/05/21 10:13:51;;;;;;;1999.90;999.90;;;;;;;31.99;30.59;95801.81;5098358;28;20210;-72
2022/05/21 10:16:57;;;;;;;1999.90;999.90;;;;;;;32.78;29.63;95801.66;5098616;28;20260;-72
2022/05/21 10:19:51;;;;;;;1999.90;999.90;;;;;;;32.31;30.42;95792.16;5017456;28;20255;-73
2022/05/21 10:22:36;;;;;;;1999.90;999.90;;;;;;;32.32;31.43;95804.97;5098637;28;20179;-61
2022/05/21 10:25:16;;;;;;;1999.90;999.90;;;;;;;32.56;30.21;95802.03;5098294;28;20229;-60
2022/05/21 10:28:04;;;;;;;1999.90;999.90;;;;;;;32.45;31.11;95788.03;5097798;28;20224;-60
2022/05/21 10:30:30;;;;;;;1999.90;999.90;;;;;;;33.00;29.45;95795.63;5098122;28;20195;-60
2022/05/21 10:33:08;;;;;;;1999.90;999.90;;;;;;;32.49;30.45;95788.53;5096892;28;20184;-61
2022/05/21 10:36:07;;;;;;;1999.90;999.90;;;;;;;32.53;29.92;95785.38;5098063;28;20183;-60
2022/05/21 10:38:46;;;;;;;1999.90;999.90;;;;;;;32.69;29.62;95782.25;5098117;28;20184;-60
2022/05/21 10:41:35;;;;;;;1999.90;999.90;;;;;;;32.57;31.29;95786.59;5098577;28;20184;-61
2022/05/21 10:44:41;;;;;;;1999.90;999.90;;;;;;;32.50;30.07;95773.06;5098233;28;20180;-65
2022/05/21 10:47:31;;;;;;;1999.90;999.90;;;;;;;32.53;31.19;95769.16;5098049;28;20252;-65
2022/05/21 10:50:08;;;;;;;1999.90;999.90;;;;;;;32.94;30.01;95772.34;5098184;28;20220;-65
2022/05/21 10:52:45;;;;;;;1999.90;999.90;;;;;;;33.27;28.25;95768.13;5098218;28;20175;-67
2022/05/21 10:55:16;;;;;;;1999.90;999.90;;;;;;;32.99;28.52;95765.81;5097944;28;20191;-68
2022/05/21 10:57:47;;;;;;;1999.90;999.90;;;;;;;32.67;29.96;95773.53;5097544;28;20187;-59
2022/05/21 11:00:18;;;;;;;1999.90;999.90;;;;;;;32.35;28.42;95764.31;5097611;28;20188;-61
2022/05/21 11:03:06;;;;;;;1999.90;999.90;;;;;;;32.57;28.11;95775.28;5097966;28;20179;-70
2022/05/21 11:06:20;;;;;;;1999.90;999.90;;;;;;;31.88;29.92;95754.69;5097643;28;20188;-69
2022/05/21 11:09:02;;;;;;;1999.90;999.90;;;;;;;32.46;28.79;95758.47;5026609;28;20203;-65
2022/05/21 11:12:05;;;;;;;1999.90;999.90;;;;;;;32.49;29.75;95763.06;5097524;28;20172;-65
2022/05/21 11:14:43;;;;;;;1999.90;999.90;;;;;;;32.32;29.99;95762.53;5097285;28;20207;-65
2022/05/21 11:17:35;;;;;;;1999.90;999.90;;;;;;;32.12;30.88;95751.75;5097670;28;20207;-65
2022/05/21 11:20:21;;;;;;;1999.90;999.90;;;;;;;32.04;30.13;95750.84;5097836;28;20195;-66
2022/05/21 11:22:58;;;;;;;1999.90;999.90;;;;;;;31.71;31.44;95744.91;5097246;28;20191;-66
2022/05/21 11:25:51;;;;;;;1999.90;999.90;;;;;;;31.10;29.75;95754.06;5098139;28;20194;-66
2022/05/21 11:28:43;;;;;;;1999.90;999.90;;;;;;;31.30;30.61;95750.78;5084157;28;20273;-66
2022/05/21 11:39:44;;;;;;;1999.90;999.90;;;;;;;30.43;28.82;95748.28;5115564;28;20241;-61